Pagrindinis puslapis
METAR-TAF:

METAR-TAF

Oro uostai :

Sonora Municipal Airport

Sonora, Teksasas, Jungtinės Amerikos Valstijos

platuma: 30-35-08N, ilguma: 100-38-54W, Aukštis: 652 m

Dabartinis oras

Ataskaita buvo paskelbta 16 minutes, ne 22:55 UTC
Vėjas 14 kt iš Pietų/Pietryčių su gūsio iki 23 kt
Temperatūra 31°C
Drėgmė 43%
Slėgis 1008 hPa
Matomumas: 16.1 km
Giedras dangus

METAR: KSOA 082255Z AUTO 16014G23KT 10SM CLR 31/17 A2978 RMK AO2

Laikas: 18:11 (23:11 UTC)

Prognozė

Ataskaita buvo paskelbta 5 valandos ir 51 minutes, ne 17:20 UTC
Prognozė galioja nuo 08 metu 18 UTC su 09 metu 18 UTC
Vėjas 16 kt iš Pietų su gūsio iki 23 kt
Matomumas: 10 km
Išsisklaidę debesys ne aukštis 5000 ft
Nuo 08 metu 2200 UTC
Vėjas 12 kt iš Pietų/Pietryčių su gūsio iki 19 kt
Matomumas: 10 km
Išsisklaidę debesys ne aukštis 20000 ft
Nuo 09 metu 0400 UTC
Vėjas 11 kt iš Pietų
Matomumas: 10 km
Išsisklaidę debesys ne aukštis 20000 ft

TAF: KSOA 081720Z 0818/0918 18016G23KT P6SM SCT050 FM082200 16012G19KT P6SM SCT200 FM090400 18011KT P6SM SCT200

Orai ataskaitas ir orų prognozės (METAR, TAF).

turimą stotys yra geltonos ir raudonos taškus žemėlapyje.

Perkelti pele per norėdami pamatyti stoties vardą.

Tada spustelėkite, norėdami matyti oro stebėjimo ir prognozės.

Norėdami pakeisti žemėlapį: spustelėkite ant žalios mygtukų su juodo kryžiaus žemyn,; žalią mygtuką su brūkšneliu, jei norite nutolinti; arba žalių rodyklių gretimoms žemėlapius.


METAR-TAF: